Time;durP1;ratioP1;P1;durP2;ratioP2;P2;SDS_P1;SDS_P2;PMS_P1;PMS_P2;Temp;Humidity;BMP_temperature;BMP_pressure;BME280_temperature;BME280_humidity;BME280_pressure;Samples;Min_cycle;Max_cycle;Signal;HPM_P1;HPM_P2
2022/10/16 00:02:17;;;;;;;6.22;4.45;;;;;;;15.26;100.00;100128.28;5050531;28;20465;-74
2022/10/16 00:04:43;;;;;;;5.05;3.75;;;;;;;15.23;100.00;100131.16;5047741;28;20049;-78
2022/10/16 00:07:10;;;;;;;3.50;3.13;;;;;;;15.06;100.00;100082.53;5043988;28;20152;-77
2022/10/16 00:09:37;;;;;;;5.80;3.80;;;;;;;15.15;100.00;100090.84;5046356;28;20175;-78
2022/10/16 00:12:04;;;;;;;4.82;3.38;;;;;;;15.29;100.00;100098.72;5029954;28;20044;-77
2022/10/16 00:14:30;;;;;;;7.82;3.70;;;;;;;15.29;100.00;100098.72;5051644;28;20056;-79
2022/10/16 00:16:57;;;;;;;6.10;4.05;;;;;;;15.23;100.00;100076.00;5046753;28;20046;-79
2022/10/16 00:19:24;;;;;;;4.20;3.80;;;;;;;15.33;100.00;100090.38;5044803;28;20049;-75
2022/10/16 00:21:50;;;;;;;4.68;3.58;;;;;;;15.30;100.00;100089.75;5053861;28;20049;-78
2022/10/16 00:24:17;;;;;;;4.40;3.95;;;;;;;15.34;100.00;100105.44;5037087;28;20068;-74
2022/10/16 00:26:44;;;;;;;8.95;6.32;;;;;;;15.33;100.00;100111.72;5052308;28;20055;-77
2022/10/16 00:29:10;;;;;;;8.45;6.90;;;;;;;15.23;100.00;100094.69;5045584;28;20053;-77
2022/10/16 00:31:37;;;;;;;6.75;6.05;;;;;;;15.31;100.00;100110.97;5040670;28;20073;-78
2022/10/16 00:34:04;;;;;;;8.00;5.90;;;;;;;15.41;100.00;100116.53;5042380;28;20061;-77
2022/10/16 00:36:31;;;;;;;6.88;5.70;;;;;;;15.40;100.00;100109.50;5046046;28;20059;-73
2022/10/16 00:39:00;;;;;;;6.65;5.65;;;;;;;15.44;100.00;100108.28;5044842;28;20087;-79
2022/10/16 00:41:29;;;;;;;10.10;5.75;;;;;;;15.43;100.00;100101.25;5045166;28;20085;-79
2022/10/16 00:43:58;;;;;;;7.88;6.00;;;;;;;15.37;100.00;100085.69;5045952;28;20068;-76
2022/10/16 00:46:28;;;;;;;8.88;6.10;;;;;;;15.54;100.00;100103.16;5041821;28;20116;-80
2022/10/16 00:49:01;;;;;;;7.45;6.75;;;;;;;15.57;100.00;100109.16;5041958;28;20068;-76
2022/10/16 00:51:33;;;;;;;7.40;6.07;;;;;;;15.50;100.00;100086.50;5051219;28;20049;-72
2022/10/16 00:54:01;;;;;;;8.75;5.88;;;;;;;15.48;100.00;100085.75;5046281;28;20041;-73
2022/10/16 00:56:28;;;;;;;8.40;7.13;;;;;;;15.62;100.00;100101.66;5050997;28;20051;-78
2022/10/16 00:58:55;;;;;;;10.00;6.47;;;;;;;15.60;100.00;100108.91;5063154;28;20132;-78
2022/10/16 01:01:22;;;;;;;7.57;6.55;;;;;;;15.60;100.00;100108.91;5042824;28;20369;-78
2022/10/16 01:03:48;;;;;;;6.78;6.10;;;;;;;15.50;100.00;100094.50;5043997;28;20046;-75
2022/10/16 01:06:27;;;;;;;7.75;5.82;;;;;;;15.58;100.00;100107.34;5049181;28;20468;-79
2022/10/16 01:09:16;;;;;;;7.93;6.57;;;;;;;15.56;100.00;100118.13;5044702;28;20083;-78
2022/10/16 01:12:19;;;;;;;7.15;6.20;;;;;;;15.54;100.00;100135.19;5047375;28;20056;-71
2022/10/16 01:14:52;;;;;;;9.02;6.15;;;;;;;15.53;100.00;100128.13;5045627;28;20400;-76
2022/10/16 01:17:25;;;;;;;9.02;6.80;;;;;;;15.42;100.00;100113.72;5045151;28;20426;-77
2022/10/16 01:20:05;;;;;;;7.03;5.90;;;;;;;15.39;100.00;100119.31;5045471;28;20405;-78
2022/10/16 01:23:00;;;;;;;9.05;6.05;;;;;;;15.53;100.00;100150.34;5042325;28;20096;-77
2022/10/16 01:25:44;;;;;;;6.80;5.78;;;;;;;15.43;100.00;100133.25;5013489;28;20063;-75
2022/10/16 01:28:13;;;;;;;7.30;5.05;;;;;;;15.40;100.00;100126.34;5047786;28;20045;-78
2022/10/16 01:30:42;;;;;;;9.40;5.05;;;;;;;15.53;100.00;100133.47;5046092;28;20447;-75
2022/10/16 01:33:17;;;;;;;8.70;5.28;;;;;;;15.54;100.00;100117.34;5047913;28;20143;-74
2022/10/16 01:35:49;;;;;;;4.82;4.20;;;;;;;15.55;100.00;100112.88;5042510;28;20045;-74
2022/10/16 01:38:26;;;;;;;4.57;3.95;;;;;;;15.64;100.00;100121.09;5044183;28;20442;-77
2022/10/16 01:40:59;;;;;;;6.75;3.72;;;;;;;15.54;100.00;100103.16;5042064;28;20049;-74
2022/10/16 01:43:33;;;;;;;4.82;3.50;;;;;;;15.55;100.00;100097.75;5047189;28;20061;-76
2022/10/16 01:46:00;;;;;;;4.13;3.72;;;;;;;15.68;100.00;100127.06;5047800;28;20051;-75
2022/10/16 01:48:29;;;;;;;5.45;3.40;;;;;;;15.68;100.00;100121.72;5048389;28;20489;-75
2022/10/16 01:51:03;;;;;;;4.68;3.60;;;;;;;15.63;100.00;100123.88;5047557;28;20132;-74
2022/10/16 01:53:31;;;;;;;4.78;3.65;;;;;;;15.61;100.00;100125.78;5048826;28;20052;-70
2022/10/16 01:56:00;;;;;;;5.75;3.33;;;;;;;15.59;100.00;100139.25;5047776;28;20051;-73
2022/10/16 01:58:34;;;;;;;4.70;3.28;;;;;;;15.57;100.00;100146.53;5047809;28;20063;-76
2022/10/16 02:01:04;;;;;;;5.63;3.22;;;;;;;15.50;100.00;100133.69;5041326;28;20056;-77
2022/10/16 02:03:34;;;;;;;3.30;3.00;;;;;;;15.57;100.00;100135.00;5044245;28;20143;-77
2022/10/16 02:06:00;;;;;;;4.28;3.10;;;;;;;15.62;100.00;100139.03;5044263;28;20194;-76
2022/10/16 02:08:30;;;;;;;4.13;3.13;;;;;;;15.64;100.00;100131.75;5048340;28;20049;-79
2022/10/16 02:10:57;;;;;;;4.38;2.58;;;;;;;15.61;100.00;100129.31;5048132;28;20065;-78
2022/10/16 02:13:31;;;;;;;3.00;2.70;;;;;;;15.59;100.00;100144.56;5047052;28;20169;-75
2022/10/16 02:15:58;;;;;;;3.72;3.03;;;;;;;15.56;100.00;100141.31;5050826;28;20100;-77
2022/10/16 02:18:28;;;;;;;5.30;2.70;;;;;;;15.53;100.00;100146.81;5048011;28;20045;-75
2022/10/16 02:21:16;;;;;;;4.00;2.63;;;;;;;15.48;100.00;100163.16;5044838;28;20085;-75
2022/10/16 02:24:10;;;;;;;4.82;2.97;;;;;;;15.45;100.00;100158.03;5048009;28;20042;-74
2022/10/16 02:26:43;;;;;;;2.92;2.72;;;;;;;15.49;100.00;100159.53;5044341;28;20102;-73
2022/10/16 02:29:14;;;;;;;4.43;2.47;;;;;;;15.33;100.00;100145.56;5044273;28;20072;-77
2022/10/16 02:31:47;;;;;;;2.75;1.90;;;;;;;15.45;100.00;100163.34;5039587;28;20058;-76
2022/10/16 02:34:15;;;;;;;4.82;3.00;;;;;;;15.40;100.00;100152.19;5037281;28;20045;-76
2022/10/16 02:36:44;;;;;;;2.20;2.00;;;;;;;15.46;100.00;100157.06;5048045;28;20091;-75
2022/10/16 02:39:11;;;;;;;3.92;1.70;;;;;;;15.49;100.00;100161.34;5040556;28;20430;-76
2022/10/16 02:41:38;;;;;;;2.42;1.60;;;;;;;15.39;100.00;100143.31;5045001;28;20062;-76
2022/10/16 02:44:05;;;;;;;4.03;1.92;;;;;;;15.47;100.00;100161.44;5047493;28;20056;-77
2022/10/16 02:46:32;;;;;;;3.63;1.60;;;;;;;15.46;100.00;100159.72;5052391;28;20053;-77
2022/10/16 02:48:58;;;;;;;1.80;1.60;;;;;;;15.44;100.00;100161.66;5046864;28;20045;-78
2022/10/16 02:51:25;;;;;;;5.25;2.05;;;;;;;15.40;100.00;100161.03;5043510;28;20061;-78
2022/10/16 02:53:52;;;;;;;2.25;1.58;;;;;;;15.41;100.00;100161.91;5041396;28;20120;-76
2022/10/16 02:56:18;;;;;;;4.85;1.40;;;;;;;15.37;100.00;100160.41;5045250;28;20052;-74
2022/10/16 02:58:45;;;;;;;2.55;1.40;;;;;;;15.31;100.00;100166.16;5050790;28;20472;-76
2022/10/16 03:01:12;;;;;;;2.50;1.85;;;;;;;15.29;100.00;100160.06;5045227;28;21503;-77
2022/10/16 03:03:39;;;;;;;1.70;1.60;;;;;;;15.24;100.00;100167.56;5052247;28;20146;-72
2022/10/16 03:06:06;;;;;;;1.70;1.60;;;;;;;15.18;100.00;100176.81;5049602;28;20060;-75
2022/10/16 03:08:32;;;;;;;2.35;1.50;;;;;;;15.12;100.00;100192.38;5050878;28;20045;-72
2022/10/16 03:10:59;;;;;;;1.60;1.50;;;;;;;15.06;100.00;100183.00;5048343;28;20057;-75
2022/10/16 03:13:25;;;;;;;2.67;1.50;;;;;;;15.06;100.00;100186.53;5051606;28;20047;-74
2022/10/16 03:15:52;;;;;;;2.00;1.60;;;;;;;15.05;100.00;100173.31;5048050;28;20041;-75
2022/10/16 03:18:18;;;;;;;1.70;1.60;;;;;;;15.08;100.00;100179.28;5030659;28;20071;-74
2022/10/16 03:20:45;;;;;;;2.03;1.52;;;;;;;15.11;100.00;100180.03;5052222;28;20560;-73
2022/10/16 03:23:12;;;;;;;3.15;1.35;;;;;;;15.13;100.00;100186.94;5043319;28;20048;-74
2022/10/16 03:25:39;;;;;;;4.78;1.40;;;;;;;15.16;100.00;100183.22;5048746;28;20132;-75
2022/10/16 03:28:05;;;;;;;1.88;1.38;;;;;;;15.14;100.00;100177.13;5045704;28;20104;-76
2022/10/16 03:30:32;;;;;;;3.90;1.50;;;;;;;15.21;100.00;100194.44;5043001;28;20084;-74
2022/10/16 03:32:59;;;;;;;3.42;1.38;;;;;;;14.99;100.00;100176.38;5049127;28;20072;-74
2022/10/16 03:35:25;;;;;;;3.45;1.30;;;;;;;15.12;100.00;100197.72;5049446;28;20059;-73
2022/10/16 03:37:52;;;;;;;3.58;1.60;;;;;;;15.02;100.00;100170.84;5050436;28;20052;-77
2022/10/16 03:40:20;;;;;;;2.08;1.30;;;;;;;15.06;100.00;100167.88;5046695;28;20048;-75
2022/10/16 03:42:46;;;;;;;2.92;1.48;;;;;;;15.12;100.00;100195.06;5050748;28;20056;-76
2022/10/16 03:45:13;;;;;;;2.85;1.30;;;;;;;15.11;100.00;100193.38;5030190;28;20067;-73
2022/10/16 03:47:40;;;;;;;2.17;1.40;;;;;;;15.06;100.00;100210.53;5052022;28;20509;-76
2022/10/16 03:50:07;;;;;;;4.00;1.70;;;;;;;15.05;100.00;100203.50;5042123;28;20052;-73
2022/10/16 03:52:33;;;;;;;1.40;1.30;;;;;;;14.96;100.00;100184.59;5050065;28;20060;-75
2022/10/16 03:55:00;;;;;;;2.35;1.30;;;;;;;15.01;100.00;100180.66;5050222;28;20045;-76
2022/10/16 03:57:26;;;;;;;3.17;1.65;;;;;;;15.11;100.00;100196.03;5047852;28;20059;-75
2022/10/16 03:59:53;;;;;;;1.83;1.42;;;;;;;14.99;100.00;100171.91;5045595;28;20079;-74
2022/10/16 04:02:20;;;;;;;1.85;1.52;;;;;;;14.94;100.00;100174.06;5049792;28;20055;-75
2022/10/16 04:04:47;;;;;;;3.55;1.52;;;;;;;15.07;100.00;100198.91;5048454;28;20132;-74
2022/10/16 04:07:13;;;;;;;1.90;1.23;;;;;;;15.03;100.00;100194.75;5050298;28;20048;-76
2022/10/16 04:09:40;;;;;;;1.98;1.17;;;;;;;15.06;100.00;100199.88;5043472;28;20057;-77
2022/10/16 04:12:06;;;;;;;4.30;1.52;;;;;;;14.99;100.00;100177.25;5044365;28;20052;-74
2022/10/16 04:14:33;;;;;;;2.88;1.25;;;;;;;14.98;100.00;100180.00;5053054;28;20501;-78
2022/10/16 04:17:00;;;;;;;2.25;1.30;;;;;;;14.91;100.00;100179.59;5047835;28;20239;-77
2022/10/16 04:19:27;;;;;;;3.00;1.20;;;;;;;14.92;100.00;100186.63;5043143;28;20366;-75
2022/10/16 04:21:53;;;;;;;1.80;1.50;;;;;;;14.97;100.00;100205.81;5045149;28;20052;-76
2022/10/16 04:24:20;;;;;;;2.45;2.00;;;;;;;15.06;100.00;100212.34;5050122;28;20486;-76
2022/10/16 04:26:46;;;;;;;2.47;1.50;;;;;;;15.09;100.00;100217.47;5047403;28;20044;-75
2022/10/16 04:29:13;;;;;;;2.70;1.50;;;;;;;15.13;100.00;100212.75;5046962;28;20504;-75
2022/10/16 04:31:39;;;;;;;1.65;1.30;;;;;;;15.17;100.00;100214.28;5049014;28;20048;-73
2022/10/16 04:34:06;;;;;;;2.55;1.42;;;;;;;15.15;100.00;100213.53;5046930;28;20133;-76
2022/10/16 04:36:32;;;;;;;3.63;1.77;;;;;;;15.19;100.00;100215.88;5052385;28;20057;-73
2022/10/16 04:38:59;;;;;;;3.63;1.42;;;;;;;15.18;100.00;100223.97;5047153;28;20519;-75
2022/10/16 04:41:25;;;;;;;2.33;1.50;;;;;;;15.17;100.00;100223.13;5040261;28;20052;-75
2022/10/16 04:43:52;;;;;;;1.40;1.30;;;;;;;15.15;100.00;100224.19;5042187;28;20520;-73
2022/10/16 04:46:19;;;;;;;2.75;1.20;;;;;;;15.14;100.00;100217.16;5036573;28;20550;-75
2022/10/16 04:48:46;;;;;;;1.73;1.30;;;;;;;15.18;100.00;100232.00;5046530;28;20493;-73
2022/10/16 04:51:13;;;;;;;1.42;1.08;;;;;;;15.08;100.00;100213.97;5036716;28;20053;-76
2022/10/16 04:53:39;;;;;;;2.17;1.27;;;;;;;15.18;100.00;100215.97;5043751;28;20079;-75
2022/10/16 04:56:06;;;;;;;1.15;1.05;;;;;;;15.19;100.00;100215.03;5045085;28;20059;-76
2022/10/16 04:58:33;;;;;;;2.70;1.30;;;;;;;15.08;100.00;100186.44;5042451;28;20053;-75
2022/10/16 05:00:59;;;;;;;1.60;1.20;;;;;;;15.22;100.00;100214.81;5043822;28;20068;-74
2022/10/16 05:03:26;;;;;;;2.65;1.20;;;;;;;15.23;100.00;100227.19;5039215;28;20051;-76
2022/10/16 05:05:53;;;;;;;2.35;1.45;;;;;;;15.11;100.00;100212.03;5040179;28;20049;-76
2022/10/16 05:08:19;;;;;;;2.22;1.35;;;;;;;15.20;100.00;100235.41;5042969;28;20508;-76
2022/10/16 05:10:46;;;;;;;2.22;1.40;;;;;;;15.21;100.00;100229.97;5044186;28;20410;-75
2022/10/16 05:13:12;;;;;;;1.73;1.27;;;;;;;15.12;100.00;100211.06;5042596;28;20041;-72
2022/10/16 05:15:39;;;;;;;1.90;1.63;;;;;;;15.23;100.00;100232.53;5044095;28;20498;-76
2022/10/16 05:18:05;;;;;;;3.30;1.35;;;;;;;15.21;100.00;100231.78;5042781;28;20079;-76
2022/10/16 05:20:32;;;;;;;4.07;1.63;;;;;;;15.20;100.00;100238.06;5038960;28;20049;-73
2022/10/16 05:22:59;;;;;;;4.22;1.55;;;;;;;15.00;100.00;100205.63;5040018;28;20048;-75
2022/10/16 05:25:25;;;;;;;3.08;1.45;;;;;;;15.19;100.00;100237.22;5044364;28;20045;-75
2022/10/16 05:27:52;;;;;;;2.30;1.25;;;;;;;15.20;100.00;100235.41;5041102;28;20049;-74
2022/10/16 05:30:19;;;;;;;2.28;1.20;;;;;;;15.21;100.00;100240.63;5043716;28;20067;-75
2022/10/16 05:32:50;;;;;;;3.03;1.60;;;;;;;15.09;100.00;100199.66;5048635;28;20061;-71
2022/10/16 05:35:18;;;;;;;1.95;1.38;;;;;;;15.28;100.00;100225.03;5042736;28;20076;-77
2022/10/16 05:37:44;;;;;;;1.70;1.55;;;;;;;15.25;100.00;100217.28;5044450;28;20045;-77
2022/10/16 05:40:12;;;;;;;1.75;1.45;;;;;;;15.31;100.00;100225.69;5038406;28;20065;-75
2022/10/16 05:42:39;;;;;;;2.67;1.40;;;;;;;15.29;100.00;100222.28;5042823;28;20053;-73
2022/10/16 05:45:08;;;;;;;1.90;1.60;;;;;;;15.28;100.00;100222.38;5036410;28;20045;-75
2022/10/16 05:47:35;;;;;;;3.58;1.77;;;;;;;15.28;100.00;100225.03;5051253;28;20084;-76
2022/10/16 05:50:03;;;;;;;1.90;1.38;;;;;;;15.28;100.00;100225.03;5040828;28;20049;-75
2022/10/16 05:52:30;;;;;;;1.65;1.55;;;;;;;15.27;100.00;100239.34;5042486;28;20059;-78
2022/10/16 05:54:57;;;;;;;4.45;1.50;;;;;;;15.25;100.00;100243.97;5047215;28;20080;-76
2022/10/16 05:57:24;;;;;;;1.95;1.67;;;;;;;15.22;100.00;100245.00;5042449;28;20100;-78
2022/10/16 05:59:51;;;;;;;4.47;1.90;;;;;;;15.18;100.00;100242.66;5042158;28;20123;-75
2022/10/16 06:02:18;;;;;;;3.78;1.80;;;;;;;15.27;100.00;100274.03;5040476;28;20041;-77
2022/10/16 06:04:44;;;;;;;2.17;1.73;;;;;;;15.23;100.00;100262.72;5028675;28;20450;-74
2022/10/16 06:07:11;;;;;;;3.17;1.73;;;;;;;15.27;100.00;100268.69;5045098;28;20060;-76
2022/10/16 06:09:37;;;;;;;2.40;1.75;;;;;;;15.27;100.00;100269.53;5048292;28;20049;-74
2022/10/16 06:12:04;;;;;;;3.40;1.80;;;;;;;15.28;100.00;100265.91;5043030;28;20131;-76
2022/10/16 06:14:31;;;;;;;3.95;1.95;;;;;;;15.37;100.00;100272.47;5038379;28;20532;-74
2022/10/16 06:16:57;;;;;;;5.05;1.90;;;;;;;15.28;100.00;100255.25;5043949;28;20072;-73
2022/10/16 06:19:25;;;;;;;3.28;1.98;;;;;;;15.38;100.00;100266.16;5046221;28;20048;-74
2022/10/16 06:21:52;;;;;;;3.05;1.75;;;;;;;15.26;100.00;100248.34;5039251;28;20056;-74
2022/10/16 06:24:18;;;;;;;2.55;1.80;;;;;;;15.42;100.00;100271.16;5044423;28;20053;-75
2022/10/16 06:26:45;;;;;;;4.47;2.25;;;;;;;15.47;100.00;100278.84;5044196;28;20053;-75
2022/10/16 06:29:11;;;;;;;2.75;2.10;;;;;;;15.44;100.00;100282.59;5046839;28;20048;-77
2022/10/16 06:31:38;;;;;;;2.47;1.83;;;;;;;15.47;100.00;100278.84;5047314;28;20044;-75
2022/10/16 06:34:09;;;;;;;2.13;1.90;;;;;;;15.47;100.00;100292.19;5050879;28;22747;-75
2022/10/16 06:36:35;;;;;;;4.07;2.25;;;;;;;15.43;100.00;100286.22;5043122;28;20049;-75
2022/10/16 06:39:03;;;;;;;1.88;1.77;;;;;;;15.49;100.00;100294.75;5044170;28;20045;-76
2022/10/16 06:41:29;;;;;;;2.30;1.83;;;;;;;15.51;100.00;100288.38;5045271;28;20048;-75
2022/10/16 06:44:07;;;;;;;2.78;1.60;;;;;;;15.45;100.00;100265.63;5044469;28;20472;-78
2022/10/16 06:46:34;;;;;;;1.65;1.33;;;;;;;15.60;100.00;100285.09;5046783;28;20053;-78
2022/10/16 06:49:01;;;;;;;2.10;1.60;;;;;;;15.61;100.00;100281.44;5048320;28;20053;-75
2022/10/16 06:51:28;;;;;;;3.50;2.10;;;;;;;15.70;100.00;100296.00;5044434;28;20049;-78
2022/10/16 06:53:58;;;;;;;2.58;1.90;;;;;;;15.55;100.00;100268.56;5039133;28;20044;-78
2022/10/16 06:56:31;;;;;;;4.28;1.70;;;;;;;15.74;100.00;100294.81;5042222;28;20485;-77
2022/10/16 06:58:58;;;;;;;4.05;2.00;;;;;;;15.66;100.00;100294.50;5052357;28;20052;-76
2022/10/16 07:01:26;;;;;;;2.45;2.25;;;;;;;15.77;100.00;100307.94;5049599;28;20048;-77
2022/10/16 07:03:53;;;;;;;4.57;2.50;;;;;;;15.78;100.00;100307.84;5049909;28;20329;-77
2022/10/16 07:06:21;;;;;;;2.38;2.17;;;;;;;15.63;100.00;100274.19;5046038;28;20049;-78
2022/10/16 07:08:48;;;;;;;5.95;3.53;;;;;;;15.87;100.00;100308.16;5049679;28;20041;-78
2022/10/16 07:11:20;;;;;;;3.83;3.30;;;;;;;15.91;100.00;100315.84;5044284;28;20449;-76
2022/10/16 07:13:48;;;;;;;5.82;4.10;;;;;;;15.94;100.00;100325.44;5051402;28;20052;-77
2022/10/16 07:16:23;;;;;;;5.13;4.43;;;;;;;15.91;100.00;100317.66;5050501;28;20136;-78
2022/10/16 07:18:51;;;;;;;6.88;4.35;;;;;;;15.99;100.00;100326.00;5049298;28;20071;-77
2022/10/16 07:21:22;;;;;;;4.70;4.13;;;;;;;16.13;100.00;100325.88;5046498;28;20547;-76
2022/10/16 07:23:58;;;;;;;5.80;4.70;;;;;;;16.26;100.00;100328.50;5053131;28;20060;-76
2022/10/16 07:26:25;;;;;;;7.43;4.40;;;;;;;16.36;100.00;100334.94;5048911;28;20385;-79
2022/10/16 07:28:52;;;;;;;6.25;4.18;;;;;;;16.33;100.00;100316.44;5050139;28;20108;-77
2022/10/16 07:31:20;;;;;;;5.50;4.40;;;;;;;16.28;100.00;100323.91;5049676;28;20053;-79
2022/10/16 07:33:47;;;;;;;7.63;4.55;;;;;;;16.29;100.00;100361.22;5048608;28;20067;-79
2022/10/16 07:36:19;;;;;;;5.85;4.05;;;;;;;16.24;100.00;100360.69;5050600;28;20079;-78
2022/10/16 07:38:46;;;;;;;8.20;4.20;;;;;;;16.25;100.00;100377.56;5048890;28;20159;-78
2022/10/16 07:41:17;;;;;;;7.35;4.30;;;;;;;16.22;100.00;100367.09;5046156;28;20041;-79
2022/10/16 07:43:48;;;;;;;4.57;3.55;;;;;;;16.27;100.00;100362.28;5040653;28;20045;-73
2022/10/16 07:46:16;;;;;;;6.28;3.95;;;;;;;16.27;100.00;100381.84;5047568;28;20132;-78
2022/10/16 07:48:45;;;;;;;5.05;3.88;;;;;;;16.18;100.00;100371.81;5046791;28;20037;-74
2022/10/16 07:51:13;;;;;;;6.97;4.72;;;;;;;16.21;100.00;100392.13;5044552;28;20662;-78
2022/10/16 07:53:40;;;;;;;7.80;5.13;;;;;;;16.16;100.00;100388.91;5050783;28;20336;-77
2022/10/16 07:56:08;;;;;;;5.22;4.35;;;;;;;15.97;100.00;100351.94;5043062;28;20041;-76
2022/10/16 07:58:38;;;;;;;4.22;3.80;;;;;;;16.20;100.00;100383.25;5054135;28;20049;-78
2022/10/16 08:01:07;;;;;;;4.70;4.13;;;;;;;16.23;100.00;100382.16;5049798;28;20041;-78
2022/10/16 08:03:34;;;;;;;5.53;4.30;;;;;;;16.18;100.00;100392.34;5049331;28;20046;-75
2022/10/16 08:06:01;;;;;;;9.68;4.53;;;;;;;16.16;100.00;100399.59;5048365;28;20481;-79
2022/10/16 08:08:28;;;;;;;5.88;4.15;;;;;;;16.13;100.00;100414.88;5051263;28;20140;-81
2022/10/16 08:10:55;;;;;;;6.60;4.40;;;;;;;16.06;100.00;100423.41;5033517;28;20067;-80
2022/10/16 08:13:22;;;;;;;6.85;4.53;;;;;;;15.97;100.00;100426.72;5053359;28;20412;-76
2022/10/16 08:15:48;;;;;;;8.80;4.78;;;;;;;15.88;100.00;100427.38;5049759;28;20041;-78
2022/10/16 08:18:15;;;;;;;5.78;4.50;;;;;;;15.81;100.00;100428.72;5053655;28;20044;-77
2022/10/16 08:20:42;;;;;;;9.90;4.97;;;;;;;15.86;100.00;100426.63;5059206;28;20041;-75
2022/10/16 08:23:11;;;;;;;5.43;4.22;;;;;;;15.87;100.00;100418.50;5049469;28;20051;-79
2022/10/16 08:25:38;;;;;;;6.95;4.60;;;;;;;15.87;100.00;100420.31;5051169;28;20048;-79
2022/10/16 08:28:06;;;;;;;11.25;6.13;;;;;;;15.94;100.00;100438.47;5047572;28;20049;-79
2022/10/16 08:30:33;;;;;;;7.68;5.30;;;;;;;15.89;100.00;100435.28;5046989;28;20064;-80
2022/10/16 08:33:01;;;;;;;6.38;5.55;;;;;;;15.93;100.00;100447.44;5047733;28;20056;-79
2022/10/16 08:35:28;;;;;;;5.47;4.93;;;;;;;15.93;100.00;100451.94;5045290;28;20084;-77
2022/10/16 08:37:54;;;;;;;7.70;5.20;;;;;;;15.77;100.00;100426.25;5050342;28;20055;-78
2022/10/16 08:40:24;;;;;;;7.82;5.68;;;;;;;15.81;100.00;100444.75;5048616;28;20109;-75
2022/10/16 08:43:23;;;;;;;7.20;6.13;;;;;;;15.86;100.00;100467.53;5047892;28;20112;-77
2022/10/16 08:45:56;;;;;;;6.05;5.45;;;;;;;15.73;100.00;100447.97;5042077;28;20080;-77
2022/10/16 08:48:30;;;;;;;6.15;4.95;;;;;;;15.80;100.00;100449.25;5043033;28;20056;-77
2022/10/16 08:50:57;;;;;;;8.52;5.32;;;;;;;15.93;100.00;100468.81;5042507;28;20132;-76
2022/10/16 08:53:39;;;;;;;8.40;6.13;;;;;;;15.84;100.00;100469.44;5037994;28;20091;-74
2022/10/16 08:56:05;;;;;;;9.65;6.95;;;;;;;15.69;100.00;100459.78;5044983;28;20114;-76
2022/10/16 08:58:32;;;;;;;8.75;7.63;;;;;;;15.67;100.00;100465.22;5051748;28;20045;-74
2022/10/16 09:01:02;;;;;;;10.63;7.63;;;;;;;15.51;100.00;100464.50;5042448;28;20045;-75
2022/10/16 09:03:41;;;;;;;;;;;;;;;15.53;100.00;100491.97;5048419;28;20509;-72
2022/10/16 09:06:26;;;;;;;8.70;7.78;;;;;;;15.49;100.00;100484.25;5046920;28;20439;-75
2022/10/16 09:09:24;;;;;;;10.00;8.60;;;;;;;15.50;100.00;100489.47;5045092;28;20052;-74
2022/10/16 09:11:57;;;;;;;10.32;7.40;;;;;;;15.51;100.00;100491.19;5048321;28;20045;-72
2022/10/16 09:14:50;;;;;;;9.20;7.05;;;;;;;15.54;100.00;100485.66;5043200;28;20727;-73
2022/10/16 09:17:34;;;;;;;9.68;8.40;;;;;;;15.55;100.00;100474.06;5046800;28;20049;-74
2022/10/16 09:20:16;;;;;;;10.32;8.77;;;;;;;15.64;100.00;100480.59;5044581;28;20550;-73
2022/10/16 09:22:43;;;;;;;10.98;9.60;;;;;;;15.78;100.00;100500.06;5040809;28;20132;-74
2022/10/16 09:25:17;;;;;;;11.02;9.45;;;;;;;15.76;100.00;100510.00;5047616;28;20065;-71
2022/10/16 09:27:46;;;;;;;12.60;10.07;;;;;;;15.72;100.00;100521.84;5044805;28;20127;-72
2022/10/16 09:30:16;;;;;;;10.52;9.13;;;;;;;15.67;100.00;100536.47;5040307;28;20055;-73
2022/10/16 09:32:45;;;;;;;11.90;10.35;;;;;;;15.62;100.00;100544.75;5046003;28;20072;-73
2022/10/16 09:35:18;;;;;;;10.68;9.57;;;;;;;15.61;100.00;100535.03;5044366;28;20041;-74
2022/10/16 09:37:48;;;;;;;10.60;9.13;;;;;;;15.59;100.00;100542.28;5047956;28;20057;-72
2022/10/16 09:40:34;;;;;;;11.05;9.23;;;;;;;15.51;100.00;100530.38;5045016;28;20051;-72
2022/10/16 09:43:20;;;;;;;13.90;9.48;;;;;;;15.57;100.00;100538.88;5038649;28;20128;-72
2022/10/16 09:46:08;;;;;;;10.30;8.98;;;;;;;15.45;100.00;100518.28;5046832;28;20043;-72
2022/10/16 09:48:42;;;;;;;11.38;8.38;;;;;;;15.66;100.00;100546.28;5046339;28;20515;-73
2022/10/16 09:51:30;;;;;;;12.98;8.48;;;;;;;15.62;100.00;100526.06;5049529;28;20516;-72
2022/10/16 09:54:06;;;;;;;10.35;7.95;;;;;;;15.79;100.00;100541.84;5047715;28;20485;-73
2022/10/16 09:56:41;;;;;;;11.40;8.80;;;;;;;15.86;100.00;100546.78;5044392;28;20045;-73
2022/10/16 09:59:16;;;;;;;11.93;9.15;;;;;;;15.94;100.00;100544.44;5045152;28;20075;-74
2022/10/16 10:01:47;;;;;;;10.90;8.48;;;;;;;15.94;100.00;100557.78;5046275;28;20414;-74
2022/10/16 10:04:14;;;;;;;10.65;7.40;;;;;;;15.91;100.00;100552.66;5042714;28;20055;-73
2022/10/16 10:06:45;;;;;;;10.13;8.25;;;;;;;15.91;100.00;100544.63;5039698;28;20143;-72
2022/10/16 10:09:34;;;;;;;9.93;8.15;;;;;;;15.93;100.00;100546.25;5047692;28;20041;-73
2022/10/16 10:12:03;;;;;;;13.52;9.05;;;;;;;16.13;100.00;100552.94;5051409;28;20059;-73
2022/10/16 10:14:41;;;;;;;11.20;8.60;;;;;;;16.37;100.00;100545.91;5055025;28;20117;-73
2022/10/16 10:17:21;;;;;;;9.48;8.05;;;;;;;16.63;100.00;100544.16;5046065;28;20051;-72
2022/10/16 10:20:15;;;;;;;11.17;8.60;;;;;;;16.69;100.00;100510.78;5046353;28;20497;-73
2022/10/16 10:22:45;;;;;;;9.07;6.45;;;;;;;17.05;100.00;100534.06;5043457;28;20048;-73
2022/10/16 10:25:15;;;;;;;7.60;6.38;;;;;;;17.35;100.00;100542.56;5044027;28;20140;-72
2022/10/16 10:27:58;;;;;;;8.27;5.15;;;;;;;17.58;100.00;100540.88;5047255;28;20053;-72
2022/10/16 10:30:35;;;;;;;6.10;4.78;;;;;;;17.66;100.00;100541.19;5046309;28;20168;-71
2022/10/16 10:33:27;;;;;;;5.65;4.15;;;;;;;17.72;100.00;100546.09;5044787;28;20603;-73
2022/10/16 10:36:05;;;;;;;4.63;4.15;;;;;;;17.74;100.00;100546.00;5044181;28;20045;-74
2022/10/16 10:38:40;;;;;;;5.03;3.70;;;;;;;17.73;100.00;100545.13;5050283;28;20067;-72
2022/10/16 10:41:29;;;;;;;4.28;3.45;;;;;;;17.77;100.00;100538.59;5052940;28;20351;-71
2022/10/16 10:44:03;;;;;;;3.55;2.95;;;;;;;17.83;100.00;100537.25;5055303;28;20051;-71
2022/10/16 10:46:43;;;;;;;4.07;3.08;;;;;;;17.87;100.00;100531.56;5048428;28;20068;-72
2022/10/16 10:49:30;;;;;;;3.60;2.90;;;;;;;18.04;100.00;100541.00;5043741;28;20094;-71
2022/10/16 10:52:05;;;;;;;3.83;3.28;;;;;;;18.16;100.00;100536.53;5045588;28;20416;-73
2022/10/16 10:54:43;;;;;;;4.80;4.03;;;;;;;18.45;100.00;100539.66;5046824;28;20056;-76
2022/10/16 10:57:36;;;;;;;5.90;4.50;;;;;;;18.58;100.00;100537.72;5038209;28;20041;-73
2022/10/16 11:00:42;;;;;;;6.13;5.03;;;;;;;18.69;100.00;100535.13;5047765;28;20052;-73
2022/10/16 11:03:31;;;;;;;7.63;6.05;;;;;;;18.69;100.00;100536.94;5044682;28;20041;-72
2022/10/16 11:06:24;;;;;;;9.85;7.03;;;;;;;18.70;100.00;100544.03;5051739;28;20059;-75
2022/10/16 11:08:58;;;;;;;8.15;6.38;;;;;;;18.65;100.00;100546.19;5045551;28;20057;-76
2022/10/16 11:11:56;;;;;;;6.47;5.80;;;;;;;18.46;100.00;100530.66;5049160;28;20053;-73
2022/10/16 11:14:46;;;;;;;6.13;5.38;;;;;;;18.41;100.00;100522.97;5049632;28;20061;-75
2022/10/16 11:17:19;;;;;;;7.00;6.30;;;;;;;18.52;100.00;100511.41;5047918;28;20408;-73
2022/10/16 11:20:14;;;;;;;8.40;7.60;;;;;;;18.70;100.00;100539.50;5042067;28;20674;-73
2022/10/16 11:22:47;;;;;;;9.68;7.95;;;;;;;18.63;100.00;100537.41;5029837;28;20048;-75
2022/10/16 11:25:29;;;;;;;10.25;9.25;;;;;;;18.52;100.00;100517.63;5047486;28;20040;-73
2022/10/16 11:28:01;;;;;;;10.38;9.30;;;;;;;18.68;100.00;100538.78;5047273;28;20812;-74
2022/10/16 11:30:32;;;;;;;13.48;10.52;;;;;;;18.73;100.00;100538.44;5043598;28;20047;-73
2022/10/16 11:33:08;;;;;;;13.43;10.25;;;;;;;18.76;100.00;100546.22;5041568;28;20060;-74
2022/10/16 11:35:53;;;;;;;12.43;9.82;;;;;;;18.79;100.00;100537.91;5043880;28;20046;-73